East Monbo, North Carolina
Current Conditions -  °F | °C
As of 7:35 AM on Monday 24 Nov 2014 (Local Time) from KSVH Reporting Station
Overcast Overcast  
Wind Chill: 58°   Ceiling: 1400
Heat Index: 58°   Visibility: 10mi
Dew Point: 55°   Wind: 6mph
Humidity: 89%   Direction: 200°SSW
Pressure: 29.76"   Gusts: NA
Location:  35.8306°N, 80.9003°W
Report Text: KSVH 241235Z AUTO 20005KT 10SM OVC014 15/13 A2976 RMK AO2 T01460128
Loading
Personal Weather Stations






























Interactive Weather Map New forecast layout! Learn more

10-Day Weather Forecast

Advertisements
Track Severe Weather on mobile